sensor_id;sensor_type;location;lat;lon;timestamp;temperature;humidity
52275;DHT22;38228;50.940;4.024;2022-11-15T00:00:46;11.30;99.90
52275;DHT22;38228;50.940;4.024;2022-11-15T00:03:14;11.30;99.90
52275;DHT22;38228;50.940;4.024;2022-11-15T00:05:40;11.40;99.90
52275;DHT22;38228;50.940;4.024;2022-11-15T00:08:06;11.50;99.90
52275;DHT22;38228;50.940;4.024;2022-11-15T00:10:32;11.60;99.90
52275;DHT22;38228;50.940;4.024;2022-11-15T00:12:57;11.70;99.90
52275;DHT22;38228;50.940;4.024;2022-11-15T00:15:23;11.70;99.90
52275;DHT22;38228;50.940;4.024;2022-11-15T00:17:49;11.60;99.90
52275;DHT22;38228;50.940;4.024;2022-11-15T00:20:16;11.70;99.90
52275;DHT22;38228;50.940;4.024;2022-11-15T00:22:42;11.70;99.90
52275;DHT22;38228;50.940;4.024;2022-11-15T00:25:08;11.70;99.90
52275;DHT22;38228;50.940;4.024;2022-11-15T00:27:33;11.70;99.90
52275;DHT22;38228;50.940;4.024;2022-11-15T00:29:59;11.80;99.90
52275;DHT22;38228;50.940;4.024;2022-11-15T00:32:24;11.80;99.90
52275;DHT22;38228;50.940;4.024;2022-11-15T00:34:50;11.80;99.90
52275;DHT22;38228;50.940;4.024;2022-11-15T00:37:16;11.80;99.90
52275;DHT22;38228;50.940;4.024;2022-11-15T00:39:41;11.90;99.90
52275;DHT22;38228;50.940;4.024;2022-11-15T00:42:07;11.90;99.90
52275;DHT22;38228;50.940;4.024;2022-11-15T00:44:32;11.90;99.90
52275;DHT22;38228;50.940;4.024;2022-11-15T00:46:58;12.00;99.90
52275;DHT22;38228;50.940;4.024;2022-11-15T00:49:23;12.00;99.90
52275;DHT22;38228;50.940;4.024;2022-11-15T00:51:49;11.90;99.90
52275;DHT22;38228;50.940;4.024;2022-11-15T00:54:15;11.80;99.90
52275;DHT22;38228;50.940;4.024;2022-11-15T00:56:40;11.80;99.90
52275;DHT22;38228;50.940;4.024;2022-11-15T00:59:06;11.90;99.90
52275;DHT22;38228;50.940;4.024;2022-11-15T01:01:31;11.90;99.90
52275;DHT22;38228;50.940;4.024;2022-11-15T01:03:57;11.90;99.90
52275;DHT22;38228;50.940;4.024;2022-11-15T01:06:23;11.90;99.90
52275;DHT22;38228;50.940;4.024;2022-11-15T01:08:48;11.90;99.90
52275;DHT22;38228;50.940;4.024;2022-11-15T01:11:14;11.90;99.90
52275;DHT22;38228;50.940;4.024;2022-11-15T01:13:40;11.90;99.90
52275;DHT22;38228;50.940;4.024;2022-11-15T01:16:11;11.90;99.90
52275;DHT22;38228;50.940;4.024;2022-11-15T01:18:37;12.00;99.90
52275;DHT22;38228;50.940;4.024;2022-11-15T01:21:21;12.00;99.90
52275;DHT22;38228;50.940;4.024;2022-11-15T01:23:46;11.90;99.90
52275;DHT22;38228;50.940;4.024;2022-11-15T01:26:14;11.90;99.90
52275;DHT22;38228;50.940;4.024;2022-11-15T01:28:41;12.00;99.90
52275;DHT22;38228;50.940;4.024;2022-11-15T01:31:12;12.00;99.90
52275;DHT22;38228;50.940;4.024;2022-11-15T01:33:38;11.90;99.90
52275;DHT22;38228;50.940;4.024;2022-11-15T01:36:13;11.90;99.90
52275;DHT22;38228;50.940;4.024;2022-11-15T01:38:38;11.90;99.90
52275;DHT22;38228;50.940;4.024;2022-11-15T01:41:04;11.90;99.90
52275;DHT22;38228;50.940;4.024;2022-11-15T01:43:33;11.90;99.90
52275;DHT22;38228;50.940;4.024;2022-11-15T01:49:00;11.90;99.90
52275;DHT22;38228;50.940;4.024;2022-11-15T01:51:28;12.00;99.90
52275;DHT22;38228;50.940;4.024;2022-11-15T01:54:00;12.10;99.90
52275;DHT22;38228;50.940;4.024;2022-11-15T01:56:30;11.90;99.90
52275;DHT22;38228;50.940;4.024;2022-11-15T01:58:58;11.90;99.90
52275;DHT22;38228;50.940;4.024;2022-11-15T02:01:26;11.80;99.90
52275;DHT22;38228;50.940;4.024;2022-11-15T02:04:15;11.90;99.90
52275;DHT22;38228;50.940;4.024;2022-11-15T02:06:43;12.00;99.90
52275;DHT22;38228;50.940;4.024;2022-11-15T02:09:10;12.10;99.90
52275;DHT22;38228;50.940;4.024;2022-11-15T02:11:36;12.00;99.90
52275;DHT22;38228;50.940;4.024;2022-11-15T02:14:02;12.00;99.90
52275;DHT22;38228;50.940;4.024;2022-11-15T02:20:05;12.00;99.90
52275;DHT22;38228;50.940;4.024;2022-11-15T02:32:50;12.00;99.90
52275;DHT22;38228;50.940;4.024;2022-11-15T02:35:33;12.00;99.90
52275;DHT22;38228;50.940;4.024;2022-11-15T02:43:29;11.90;99.90
52275;DHT22;38228;50.940;4.024;2022-11-15T02:46:19;11.90;99.90
52275;DHT22;38228;50.940;4.024;2022-11-15T02:48:48;11.90;99.90
52275;DHT22;38228;50.940;4.024;2022-11-15T02:51:14;11.90;99.90
52275;DHT22;38228;50.940;4.024;2022-11-15T02:53:41;11.80;99.90
52275;DHT22;38228;50.940;4.024;2022-11-15T02:56:09;11.80;99.90
52275;DHT22;38228;50.940;4.024;2022-11-15T02:59:01;11.70;99.90
52275;DHT22;38228;50.940;4.024;2022-11-15T03:04:43;11.80;99.90
52275;DHT22;38228;50.940;4.024;2022-11-15T03:10:17;11.80;99.90
52275;DHT22;38228;50.940;4.024;2022-11-15T03:13:02;11.90;99.90
52275;DHT22;38228;50.940;4.024;2022-11-15T03:15:44;11.90;99.90
52275;DHT22;38228;50.940;4.024;2022-11-15T03:18:44;11.80;99.90
52275;DHT22;38228;50.940;4.024;2022-11-15T03:21:13;11.80;99.90
52275;DHT22;38228;50.940;4.024;2022-11-15T03:23:40;11.70;99.90
52275;DHT22;38228;50.940;4.024;2022-11-15T03:26:10;11.70;99.90
52275;DHT22;38228;50.940;4.024;2022-11-15T03:28:56;11.70;99.90
52275;DHT22;38228;50.940;4.024;2022-11-15T03:31:27;11.70;99.90
52275;DHT22;38228;50.940;4.024;2022-11-15T03:34:25;11.60;99.90
52275;DHT22;38228;50.940;4.024;2022-11-15T03:36:53;11.70;99.90
52275;DHT22;38228;50.940;4.024;2022-11-15T03:39:19;11.80;99.90
52275;DHT22;38228;50.940;4.024;2022-11-15T03:42:01;11.80;99.90
52275;DHT22;38228;50.940;4.024;2022-11-15T03:50:18;11.70;99.90
52275;DHT22;38228;50.940;4.024;2022-11-15T03:52:46;11.70;99.90
52275;DHT22;38228;50.940;4.024;2022-11-15T03:55:16;11.70;99.90
52275;DHT22;38228;50.940;4.024;2022-11-15T03:57:42;11.60;99.90
52275;DHT22;38228;50.940;4.024;2022-11-15T04:00:09;11.60;99.90
52275;DHT22;38228;50.940;4.024;2022-11-15T04:02:34;11.60;99.90
52275;DHT22;38228;50.940;4.024;2022-11-15T04:05:00;11.50;99.90
52275;DHT22;38228;50.940;4.024;2022-11-15T04:07:26;11.50;99.90
52275;DHT22;38228;50.940;4.024;2022-11-15T04:09:51;11.50;99.90
52275;DHT22;38228;50.940;4.024;2022-11-15T04:12:33;11.50;99.90
52275;DHT22;38228;50.940;4.024;2022-11-15T04:15:02;11.40;99.90
52275;DHT22;38228;50.940;4.024;2022-11-15T04:17:43;11.40;99.90
52275;DHT22;38228;50.940;4.024;2022-11-15T04:20:24;11.40;99.90
52275;DHT22;38228;50.940;4.024;2022-11-15T04:23:13;11.40;99.90
52275;DHT22;38228;50.940;4.024;2022-11-15T04:26:00;11.30;99.90
52275;DHT22;38228;50.940;4.024;2022-11-15T04:28:26;11.40;99.90
52275;DHT22;38228;50.940;4.024;2022-11-15T04:30:52;11.40;99.90
52275;DHT22;38228;50.940;4.024;2022-11-15T04:33:18;11.40;99.90
52275;DHT22;38228;50.940;4.024;2022-11-15T04:35:44;11.30;99.90
52275;DHT22;38228;50.940;4.024;2022-11-15T04:38:29;11.20;99.90
52275;DHT22;38228;50.940;4.024;2022-11-15T04:40:55;11.10;99.90
52275;DHT22;38228;50.940;4.024;2022-11-15T04:43:21;11.10;99.90
52275;DHT22;38228;50.940;4.024;2022-11-15T04:45:46;11.10;99.90
52275;DHT22;38228;50.940;4.024;2022-11-15T04:48:12;11.10;99.90
52275;DHT22;38228;50.940;4.024;2022-11-15T04:50:37;11.00;99.90
52275;DHT22;38228;50.940;4.024;2022-11-15T04:53:03;11.00;99.90
52275;DHT22;38228;50.940;4.024;2022-11-15T04:55:29;11.00;99.90
52275;DHT22;38228;50.940;4.024;2022-11-15T04:58:01;11.10;99.90
52275;DHT22;38228;50.940;4.024;2022-11-15T05:00:28;11.00;99.90
52275;DHT22;38228;50.940;4.024;2022-11-15T05:02:55;10.80;99.90
52275;DHT22;38228;50.940;4.024;2022-11-15T05:05:40;10.80;99.90
52275;DHT22;38228;50.940;4.024;2022-11-15T05:08:05;10.80;99.90
52275;DHT22;38228;50.940;4.024;2022-11-15T05:10:31;10.80;99.90
52275;DHT22;38228;50.940;4.024;2022-11-15T05:12:57;10.70;99.90
52275;DHT22;38228;50.940;4.024;2022-11-15T05:15:22;10.70;99.90
52275;DHT22;38228;50.940;4.024;2022-11-15T05:17:48;10.70;99.90
52275;DHT22;38228;50.940;4.024;2022-11-15T05:20:13;10.70;99.90
52275;DHT22;38228;50.940;4.024;2022-11-15T05:22:39;10.60;99.90
52275;DHT22;38228;50.940;4.024;2022-11-15T05:25:06;10.40;99.90
52275;DHT22;38228;50.940;4.024;2022-11-15T05:27:32;10.40;99.90
52275;DHT22;38228;50.940;4.024;2022-11-15T05:29:58;10.30;99.90
52275;DHT22;38228;50.940;4.024;2022-11-15T05:32:23;10.50;99.90
52275;DHT22;38228;50.940;4.024;2022-11-15T05:34:50;10.40;99.90
52275;DHT22;38228;50.940;4.024;2022-11-15T05:37:16;10.50;99.90
52275;DHT22;38228;50.940;4.024;2022-11-15T05:39:42;10.60;99.90
52275;DHT22;38228;50.940;4.024;2022-11-15T05:42:17;10.70;99.90
52275;DHT22;38228;50.940;4.024;2022-11-15T05:44:47;10.70;99.90
52275;DHT22;38228;50.940;4.024;2022-11-15T05:47:18;10.70;99.90
52275;DHT22;38228;50.940;4.024;2022-11-15T05:49:46;10.70;99.90
52275;DHT22;38228;50.940;4.024;2022-11-15T05:52:16;10.70;99.90
52275;DHT22;38228;50.940;4.024;2022-11-15T05:54:42;10.70;99.90
52275;DHT22;38228;50.940;4.024;2022-11-15T05:57:08;10.60;99.90
52275;DHT22;38228;50.940;4.024;2022-11-15T05:59:34;10.60;99.90
52275;DHT22;38228;50.940;4.024;2022-11-15T06:02:00;10.70;99.90
52275;DHT22;38228;50.940;4.024;2022-11-15T06:04:26;10.80;99.90
52275;DHT22;38228;50.940;4.024;2022-11-15T06:06:52;10.80;99.90
52275;DHT22;38228;50.940;4.024;2022-11-15T06:09:17;10.70;99.90
52275;DHT22;38228;50.940;4.024;2022-11-15T06:11:43;10.90;99.90
52275;DHT22;38228;50.940;4.024;2022-11-15T06:14:09;10.80;99.90
52275;DHT22;38228;50.940;4.024;2022-11-15T06:16:34;10.80;99.90
52275;DHT22;38228;50.940;4.024;2022-11-15T06:19:00;10.70;99.90
52275;DHT22;38228;50.940;4.024;2022-11-15T06:21:26;10.60;99.90
52275;DHT22;38228;50.940;4.024;2022-11-15T06:23:53;10.50;99.90
52275;DHT22;38228;50.940;4.024;2022-11-15T06:26:19;10.40;99.90
52275;DHT22;38228;50.940;4.024;2022-11-15T06:28:45;10.40;99.90
52275;DHT22;38228;50.940;4.024;2022-11-15T06:31:11;10.30;99.90
52275;DHT22;38228;50.940;4.024;2022-11-15T06:33:37;10.20;99.90
52275;DHT22;38228;50.940;4.024;2022-11-15T06:36:07;10.30;99.90
52275;DHT22;38228;50.940;4.024;2022-11-15T06:38:34;10.30;99.90
52275;DHT22;38228;50.940;4.024;2022-11-15T06:41:04;10.10;99.90
52275;DHT22;38228;50.940;4.024;2022-11-15T06:43:30;10.00;99.90
52275;DHT22;38228;50.940;4.024;2022-11-15T06:45:58;9.90;99.90
52275;DHT22;38228;50.940;4.024;2022-11-15T06:48:25;9.90;99.90
52275;DHT22;38228;50.940;4.024;2022-11-15T06:50:52;9.90;99.90
52275;DHT22;38228;50.940;4.024;2022-11-15T06:53:18;10.00;99.90
52275;DHT22;38228;50.940;4.024;2022-11-15T06:55:44;9.90;99.90
52275;DHT22;38228;50.940;4.024;2022-11-15T06:58:12;10.00;99.90
52275;DHT22;38228;50.940;4.024;2022-11-15T07:00:38;9.90;99.90
52275;DHT22;38228;50.940;4.024;2022-11-15T07:03:04;9.90;99.90
52275;DHT22;38228;50.940;4.024;2022-11-15T07:05:29;9.80;99.90
52275;DHT22;38228;50.940;4.024;2022-11-15T07:07:56;9.80;99.90
52275;DHT22;38228;50.940;4.024;2022-11-15T07:10:23;9.80;99.90
52275;DHT22;38228;50.940;4.024;2022-11-15T07:12:53;9.70;99.90
52275;DHT22;38228;50.940;4.024;2022-11-15T07:15:22;9.80;99.90
52275;DHT22;38228;50.940;4.024;2022-11-15T07:17:48;9.80;99.90
52275;DHT22;38228;50.940;4.024;2022-11-15T07:20:15;9.90;99.90
52275;DHT22;38228;50.940;4.024;2022-11-15T07:22:41;10.00;99.90
52275;DHT22;38228;50.940;4.024;2022-11-15T07:25:08;10.10;99.90
52275;DHT22;38228;50.940;4.024;2022-11-15T07:27:34;10.00;99.90
52275;DHT22;38228;50.940;4.024;2022-11-15T07:30:00;10.10;99.90
52275;DHT22;38228;50.940;4.024;2022-11-15T07:32:26;10.10;99.90
52275;DHT22;38228;50.940;4.024;2022-11-15T07:34:51;10.00;99.90
52275;DHT22;38228;50.940;4.024;2022-11-15T07:37:17;10.00;99.90
52275;DHT22;38228;50.940;4.024;2022-11-15T07:39:43;9.90;99.90
52275;DHT22;38228;50.940;4.024;2022-11-15T07:42:09;10.00;99.90
52275;DHT22;38228;50.940;4.024;2022-11-15T07:44:53;10.00;99.90
52275;DHT22;38228;50.940;4.024;2022-11-15T07:47:19;10.00;99.90
52275;DHT22;38228;50.940;4.024;2022-11-15T07:49:46;10.10;99.90
52275;DHT22;38228;50.940;4.024;2022-11-15T07:52:12;10.10;99.90
52275;DHT22;38228;50.940;4.024;2022-11-15T07:54:38;10.10;99.90
52275;DHT22;38228;50.940;4.024;2022-11-15T07:57:04;10.30;99.90
52275;DHT22;38228;50.940;4.024;2022-11-15T07:59:31;10.20;99.90
52275;DHT22;38228;50.940;4.024;2022-11-15T08:01:56;10.30;99.90
52275;DHT22;38228;50.940;4.024;2022-11-15T08:04:22;10.30;99.90
52275;DHT22;38228;50.940;4.024;2022-11-15T08:06:48;10.40;99.90
52275;DHT22;38228;50.940;4.024;2022-11-15T08:09:13;10.50;99.90
52275;DHT22;38228;50.940;4.024;2022-11-15T08:11:39;10.40;99.90
52275;DHT22;38228;50.940;4.024;2022-11-15T08:14:05;10.40;99.90
52275;DHT22;38228;50.940;4.024;2022-11-15T08:16:30;10.50;99.90
52275;DHT22;38228;50.940;4.024;2022-11-15T08:18:56;10.60;99.90
52275;DHT22;38228;50.940;4.024;2022-11-15T08:21:22;10.70;99.90
52275;DHT22;38228;50.940;4.024;2022-11-15T08:23:48;10.70;99.90
52275;DHT22;38228;50.940;4.024;2022-11-15T08:26:14;10.70;99.90
52275;DHT22;38228;50.940;4.024;2022-11-15T08:28:41;10.70;99.90
52275;DHT22;38228;50.940;4.024;2022-11-15T08:31:06;10.70;99.90
52275;DHT22;38228;50.940;4.024;2022-11-15T08:33:32;10.70;99.90
52275;DHT22;38228;50.940;4.024;2022-11-15T08:36:01;10.80;99.90
52275;DHT22;38228;50.940;4.024;2022-11-15T08:38:27;10.90;99.90
52275;DHT22;38228;50.940;4.024;2022-11-15T08:41:04;10.90;99.90
52275;DHT22;38228;50.940;4.024;2022-11-15T08:43:31;11.00;99.90
52275;DHT22;38228;50.940;4.024;2022-11-15T08:45:57;11.20;99.90
52275;DHT22;38228;50.940;4.024;2022-11-15T08:48:24;11.30;99.90
52275;DHT22;38228;50.940;4.024;2022-11-15T08:50:56;11.30;99.90
52275;DHT22;38228;50.940;4.024;2022-11-15T08:53:22;11.50;99.90
52275;DHT22;38228;50.940;4.024;2022-11-15T08:55:48;11.60;99.90
52275;DHT22;38228;50.940;4.024;2022-11-15T08:58:13;11.60;99.90
52275;DHT22;38228;50.940;4.024;2022-11-15T09:00:39;11.60;99.90
52275;DHT22;38228;50.940;4.024;2022-11-15T09:03:06;11.60;99.90
52275;DHT22;38228;50.940;4.024;2022-11-15T09:05:32;11.60;99.90
52275;DHT22;38228;50.940;4.024;2022-11-15T09:08:00;11.80;99.90
52275;DHT22;38228;50.940;4.024;2022-11-15T09:10:26;11.90;99.90
52275;DHT22;38228;50.940;4.024;2022-11-15T09:12:52;11.80;99.90
52275;DHT22;38228;50.940;4.024;2022-11-15T09:15:17;12.00;99.90
52275;DHT22;38228;50.940;4.024;2022-11-15T09:17:45;12.10;99.90
52275;DHT22;38228;50.940;4.024;2022-11-15T09:20:10;12.10;99.90
52275;DHT22;38228;50.940;4.024;2022-11-15T09:22:36;12.10;99.90
52275;DHT22;38228;50.940;4.024;2022-11-15T09:25:04;12.20;99.90
52275;DHT22;38228;50.940;4.024;2022-11-15T09:27:30;12.00;99.90
52275;DHT22;38228;50.940;4.024;2022-11-15T09:29:56;12.10;99.90
52275;DHT22;38228;50.940;4.024;2022-11-15T09:32:22;12.10;99.90
52275;DHT22;38228;50.940;4.024;2022-11-15T09:34:51;12.00;99.90
52275;DHT22;38228;50.940;4.024;2022-11-15T09:37:16;11.90;99.90
52275;DHT22;38228;50.940;4.024;2022-11-15T09:39:42;11.90;99.90
52275;DHT22;38228;50.940;4.024;2022-11-15T09:45:14;12.00;99.90
52275;DHT22;38228;50.940;4.024;2022-11-15T09:47:52;12.10;99.90
52275;DHT22;38228;50.940;4.024;2022-11-15T09:53:04;12.10;99.90
52275;DHT22;38228;50.940;4.024;2022-11-15T09:55:40;12.10;99.90
52275;DHT22;38228;50.940;4.024;2022-11-15T09:58:25;12.20;99.90
52275;DHT22;38228;50.940;4.024;2022-11-15T10:00:53;12.20;99.90
52275;DHT22;38228;50.940;4.024;2022-11-15T10:03:37;12.20;99.90
52275;DHT22;38228;50.940;4.024;2022-11-15T10:06:13;12.20;99.90
52275;DHT22;38228;50.940;4.024;2022-11-15T10:11:32;12.30;99.90
52275;DHT22;38228;50.940;4.024;2022-11-15T10:14:02;12.50;99.90
52275;DHT22;38228;50.940;4.024;2022-11-15T10:24:41;12.60;99.90
52275;DHT22;38228;50.940;4.024;2022-11-15T10:27:13;12.70;99.90
52275;DHT22;38228;50.940;4.024;2022-11-15T10:29:49;12.70;99.90
52275;DHT22;38228;50.940;4.024;2022-11-15T10:32:18;12.80;99.90
52275;DHT22;38228;50.940;4.024;2022-11-15T10:34:44;12.90;99.90
52275;DHT22;38228;50.940;4.024;2022-11-15T10:37:10;13.10;99.90
52275;DHT22;38228;50.940;4.024;2022-11-15T10:39:37;13.10;99.90
52275;DHT22;38228;50.940;4.024;2022-11-15T10:42:27;13.10;99.90
52275;DHT22;38228;50.940;4.024;2022-11-15T10:44:54;13.20;99.90
52275;DHT22;38228;50.940;4.024;2022-11-15T10:47:27;13.40;99.90
52275;DHT22;38228;50.940;4.024;2022-11-15T10:50:06;13.40;99.90
52275;DHT22;38228;50.940;4.024;2022-11-15T10:52:34;13.30;99.90
52275;DHT22;38228;50.940;4.024;2022-11-15T10:57:52;13.40;99.90
52275;DHT22;38228;50.940;4.024;2022-11-15T11:03:01;13.60;99.90
52275;DHT22;38228;50.940;4.024;2022-11-15T11:08:00;13.80;99.90
52275;DHT22;38228;50.940;4.024;2022-11-15T11:10:27;13.80;99.90
52275;DHT22;38228;50.940;4.024;2022-11-15T11:12:52;13.80;99.90
52275;DHT22;38228;50.940;4.024;2022-11-15T11:15:18;13.80;99.90
52275;DHT22;38228;50.940;4.024;2022-11-15T11:18:10;13.80;99.90
52275;DHT22;38228;50.940;4.024;2022-11-15T11:21:04;13.90;99.90
52275;DHT22;38228;50.940;4.024;2022-11-15T11:26:42;14.00;99.90
52275;DHT22;38228;50.940;4.024;2022-11-15T11:29:29;14.10;99.90
52275;DHT22;38228;50.940;4.024;2022-11-15T11:32:27;14.10;99.90
52275;DHT22;38228;50.940;4.024;2022-11-15T11:35:22;14.10;99.90
52275;DHT22;38228;50.940;4.024;2022-11-15T11:41:08;14.10;99.90
52275;DHT22;38228;50.940;4.024;2022-11-15T11:49:49;14.20;99.90
52275;DHT22;38228;50.940;4.024;2022-11-15T11:52:23;14.20;99.90
52275;DHT22;38228;50.940;4.024;2022-11-15T11:54:58;14.20;99.90
52275;DHT22;38228;50.940;4.024;2022-11-15T11:57:41;14.10;99.90
52275;DHT22;38228;50.940;4.024;2022-11-15T12:00:14;14.10;99.90
52275;DHT22;38228;50.940;4.024;2022-11-15T12:02:45;14.10;99.90
52275;DHT22;38228;50.940;4.024;2022-11-15T12:05:25;14.10;99.90
52275;DHT22;38228;50.940;4.024;2022-11-15T12:07:54;14.10;99.90
52275;DHT22;38228;50.940;4.024;2022-11-15T12:10:29;14.10;99.90
52275;DHT22;38228;50.940;4.024;2022-11-15T12:13:00;14.00;99.90
52275;DHT22;38228;50.940;4.024;2022-11-15T12:15:37;13.90;99.90
52275;DHT22;38228;50.940;4.024;2022-11-15T12:18:04;13.90;99.90
52275;DHT22;38228;50.940;4.024;2022-11-15T12:20:35;13.90;99.90
52275;DHT22;38228;50.940;4.024;2022-11-15T12:23:10;14.00;99.90
52275;DHT22;38228;50.940;4.024;2022-11-15T12:25:56;14.10;99.90
52275;DHT22;38228;50.940;4.024;2022-11-15T12:31:16;14.00;99.90
52275;DHT22;38228;50.940;4.024;2022-11-15T12:33:47;14.00;99.90
52275;DHT22;38228;50.940;4.024;2022-11-15T12:39:01;14.10;99.90
52275;DHT22;38228;50.940;4.024;2022-11-15T12:44:02;14.10;99.90
52275;DHT22;38228;50.940;4.024;2022-11-15T13:02:44;14.40;99.90
52275;DHT22;38228;50.940;4.024;2022-11-15T13:27:49;14.10;99.90
52275;DHT22;38228;50.940;4.024;2022-11-15T13:30:28;14.30;99.90
52275;DHT22;38228;50.940;4.024;2022-11-15T13:32:55;14.30;99.90
52275;DHT22;38228;50.940;4.024;2022-11-15T13:35:23;14.30;99.90
52275;DHT22;38228;50.940;4.024;2022-11-15T13:37:49;14.30;99.90
52275;DHT22;38228;50.940;4.024;2022-11-15T13:40:25;14.30;99.90
52275;DHT22;38228;50.940;4.024;2022-11-15T13:42:53;14.50;99.90
52275;DHT22;38228;50.940;4.024;2022-11-15T13:45:19;14.40;99.90
52275;DHT22;38228;50.940;4.024;2022-11-15T13:47:51;14.30;99.90
52275;DHT22;38228;50.940;4.024;2022-11-15T13:50:18;14.30;99.90
52275;DHT22;38228;50.940;4.024;2022-11-15T13:52:46;14.30;99.90
52275;DHT22;38228;50.940;4.024;2022-11-15T13:55:17;14.20;99.90
52275;DHT22;38228;50.940;4.024;2022-11-15T13:57:51;14.20;99.90
52275;DHT22;38228;50.940;4.024;2022-11-15T14:00:29;14.20;99.90
52275;DHT22;38228;50.940;4.024;2022-11-15T14:02:57;14.20;99.90
52275;DHT22;38228;50.940;4.024;2022-11-15T14:05:30;14.20;99.90
52275;DHT22;38228;50.940;4.024;2022-11-15T14:07:58;14.30;99.90
52275;DHT22;38228;50.940;4.024;2022-11-15T14:12:51;14.10;99.90
52275;DHT22;38228;50.940;4.024;2022-11-15T14:17:53;14.10;99.90
52275;DHT22;38228;50.940;4.024;2022-11-15T14:20:39;14.10;99.90
52275;DHT22;38228;50.940;4.024;2022-11-15T14:23:26;14.00;99.90
52275;DHT22;38228;50.940;4.024;2022-11-15T14:25:53;14.00;99.90
52275;DHT22;38228;50.940;4.024;2022-11-15T14:30:49;13.90;99.90
52275;DHT22;38228;50.940;4.024;2022-11-15T14:35:55;14.00;99.90
52275;DHT22;38228;50.940;4.024;2022-11-15T14:38:23;13.90;99.90
52275;DHT22;38228;50.940;4.024;2022-11-15T14:40:48;13.80;99.90
52275;DHT22;38228;50.940;4.024;2022-11-15T14:43:14;13.80;99.90
52275;DHT22;38228;50.940;4.024;2022-11-15T14:45:41;13.70;99.90
52275;DHT22;38228;50.940;4.024;2022-11-15T14:48:07;13.70;99.90
52275;DHT22;38228;50.940;4.024;2022-11-15T14:50:33;13.60;99.90
52275;DHT22;38228;50.940;4.024;2022-11-15T14:53:00;13.60;99.90
52275;DHT22;38228;50.940;4.024;2022-11-15T14:55:31;13.60;99.90
52275;DHT22;38228;50.940;4.024;2022-11-15T14:57:59;13.50;99.90
52275;DHT22;38228;50.940;4.024;2022-11-15T15:00:25;13.50;99.90
52275;DHT22;38228;50.940;4.024;2022-11-15T15:02:53;13.50;99.90
52275;DHT22;38228;50.940;4.024;2022-11-15T15:05:31;13.30;99.90
52275;DHT22;38228;50.940;4.024;2022-11-15T15:07:58;13.30;99.90
52275;DHT22;38228;50.940;4.024;2022-11-15T15:10:25;13.30;99.90
52275;DHT22;38228;50.940;4.024;2022-11-15T15:12:51;13.30;99.90
52275;DHT22;38228;50.940;4.024;2022-11-15T15:15:23;13.30;99.90
52275;DHT22;38228;50.940;4.024;2022-11-15T15:17:49;13.30;99.90
52275;DHT22;38228;50.940;4.024;2022-11-15T15:20:15;13.30;99.90
52275;DHT22;38228;50.940;4.024;2022-11-15T15:22:40;13.20;99.90
52275;DHT22;38228;50.940;4.024;2022-11-15T15:25:29;13.10;99.90
52275;DHT22;38228;50.940;4.024;2022-11-15T15:27:56;13.10;99.90
52275;DHT22;38228;50.940;4.024;2022-11-15T15:30:26;13.00;99.90
52275;DHT22;38228;50.940;4.024;2022-11-15T15:32:52;13.10;99.90
52275;DHT22;38228;50.940;4.024;2022-11-15T15:35:19;13.10;99.90
52275;DHT22;38228;50.940;4.024;2022-11-15T15:37:46;13.10;99.90
52275;DHT22;38228;50.940;4.024;2022-11-15T15:40:19;13.00;99.90
52275;DHT22;38228;50.940;4.024;2022-11-15T15:42:48;13.00;99.90
52275;DHT22;38228;50.940;4.024;2022-11-15T15:45:15;13.10;99.90
52275;DHT22;38228;50.940;4.024;2022-11-15T15:47:41;13.10;99.90
52275;DHT22;38228;50.940;4.024;2022-11-15T15:50:28;13.10;99.90
52275;DHT22;38228;50.940;4.024;2022-11-15T15:52:57;13.00;99.90
52275;DHT22;38228;50.940;4.024;2022-11-15T15:55:23;13.00;99.90
52275;DHT22;38228;50.940;4.024;2022-11-15T15:57:49;12.90;99.90
52275;DHT22;38228;50.940;4.024;2022-11-15T16:00:16;12.90;99.90
52275;DHT22;38228;50.940;4.024;2022-11-15T16:02:42;12.80;99.90
52275;DHT22;38228;50.940;4.024;2022-11-15T16:05:09;12.90;99.90
52275;DHT22;38228;50.940;4.024;2022-11-15T16:07:35;12.90;99.90
52275;DHT22;38228;50.940;4.024;2022-11-15T16:10:04;12.90;99.90
52275;DHT22;38228;50.940;4.024;2022-11-15T16:12:38;13.00;99.90
52275;DHT22;38228;50.940;4.024;2022-11-15T16:15:04;13.00;99.90
52275;DHT22;38228;50.940;4.024;2022-11-15T16:17:33;13.00;99.90
52275;DHT22;38228;50.940;4.024;2022-11-15T16:19:59;13.00;99.90
52275;DHT22;38228;50.940;4.024;2022-11-15T16:22:25;12.90;99.90
52275;DHT22;38228;50.940;4.024;2022-11-15T16:24:51;12.90;99.90
52275;DHT22;38228;50.940;4.024;2022-11-15T16:27:20;12.90;99.90
52275;DHT22;38228;50.940;4.024;2022-11-15T16:29:47;12.90;99.90
52275;DHT22;38228;50.940;4.024;2022-11-15T16:32:13;13.00;99.90
52275;DHT22;38228;50.940;4.024;2022-11-15T16:34:39;13.00;99.90
52275;DHT22;38228;50.940;4.024;2022-11-15T16:37:05;13.00;99.90
52275;DHT22;38228;50.940;4.024;2022-11-15T16:39:33;12.90;99.90
52275;DHT22;38228;50.940;4.024;2022-11-15T16:41:59;13.00;99.90
52275;DHT22;38228;50.940;4.024;2022-11-15T16:44:25;12.90;99.90
52275;DHT22;38228;50.940;4.024;2022-11-15T16:46:52;12.90;99.90
52275;DHT22;38228;50.940;4.024;2022-11-15T16:49:19;13.00;99.90
52275;DHT22;38228;50.940;4.024;2022-11-15T16:51:45;13.10;99.90
52275;DHT22;38228;50.940;4.024;2022-11-15T16:54:12;13.00;99.90
52275;DHT22;38228;50.940;4.024;2022-11-15T16:56:38;12.90;99.90
52275;DHT22;38228;50.940;4.024;2022-11-15T16:59:04;13.00;99.90
52275;DHT22;38228;50.940;4.024;2022-11-15T17:01:32;13.10;99.90
52275;DHT22;38228;50.940;4.024;2022-11-15T17:04:00;13.10;99.90
52275;DHT22;38228;50.940;4.024;2022-11-15T17:06:40;13.00;99.90
52275;DHT22;38228;50.940;4.024;2022-11-15T17:09:13;13.10;99.90
52275;DHT22;38228;50.940;4.024;2022-11-15T17:11:40;13.00;99.90
52275;DHT22;38228;50.940;4.024;2022-11-15T17:14:06;13.00;99.90
52275;DHT22;38228;50.940;4.024;2022-11-15T17:16:31;12.90;99.90
52275;DHT22;38228;50.940;4.024;2022-11-15T17:18:58;13.00;99.90
52275;DHT22;38228;50.940;4.024;2022-11-15T17:21:24;13.00;99.90
52275;DHT22;38228;50.940;4.024;2022-11-15T17:23:53;13.00;99.90
52275;DHT22;38228;50.940;4.024;2022-11-15T17:26:18;13.00;99.90
52275;DHT22;38228;50.940;4.024;2022-11-15T17:28:44;13.00;99.90
52275;DHT22;38228;50.940;4.024;2022-11-15T17:31:11;13.00;99.90
52275;DHT22;38228;50.940;4.024;2022-11-15T17:33:38;13.00;99.90
52275;DHT22;38228;50.940;4.024;2022-11-15T17:36:07;12.90;99.90
52275;DHT22;38228;50.940;4.024;2022-11-15T17:38:34;12.80;99.90
52275;DHT22;38228;50.940;4.024;2022-11-15T17:41:01;12.90;99.90
52275;DHT22;38228;50.940;4.024;2022-11-15T17:43:29;12.90;99.90
52275;DHT22;38228;50.940;4.024;2022-11-15T17:45:55;12.90;99.90
52275;DHT22;38228;50.940;4.024;2022-11-15T17:48:20;12.90;99.90
52275;DHT22;38228;50.940;4.024;2022-11-15T17:51:04;12.90;99.90
52275;DHT22;38228;50.940;4.024;2022-11-15T17:53:34;12.90;99.90